Time;durP1;ratioP1;P1;durP2;ratioP2;P2;SDS_P1;SDS_P2;PMS_P1;PMS_P2;Temp;Humidity;BMP_temperature;BMP_pressure;BME280_temperature;BME280_humidity;BME280_pressure;Samples;Min_cycle;Max_cycle;Signal;HPM_P1;HPM_P2
2021/08/29 00:00:48;;;;;;;;;;;;;;;-144.99;100.00;52395.09;5046980;28;19928;-59
2021/08/29 00:03:15;;;;;;;;;;;;;;;-144.99;100.00;52411.41;5045449;28;19929;-58
2021/08/29 00:05:41;;;;;;;;;;;;;;;-144.99;100.00;52397.13;5044102;28;19936;-58
2021/08/29 00:08:08;;;;;;;;;;;;;;;-144.99;100.00;52382.88;5043179;28;19992;-60
2021/08/29 00:10:34;;;;;;;;;;;;;;;-144.99;100.00;52435.88;5045176;28;19933;-60
2021/08/29 00:13:02;;;;;;;;;;;;;;;-144.99;100.00;52431.78;5045281;28;20497;-60
2021/08/29 00:15:28;;;;;;;;;;;;;;;-144.99;100.00;52415.47;5045213;28;20340;-60
2021/08/29 00:17:54;;;;;;;;;;;;;;;-144.99;100.00;52407.31;5047609;28;20435;-61
2021/08/29 00:20:20;;;;;;;;;;;;;;;-144.99;100.00;52431.78;5046277;28;20359;-60
2021/08/29 00:22:47;;;;;;;;;;;;;;;-144.99;100.00;52386.94;5044493;28;19987;-59
2021/08/29 00:25:13;;;;;;;;;;;;;;;-144.99;100.00;52403.25;5046546;28;19976;-59
2021/08/29 00:27:40;;;;;;;;;;;;;;;-144.99;100.00;52399.19;5045410;28;19984;-60
2021/08/29 00:30:08;;;;;;;;;;;;;;;-144.99;100.00;52435.88;5045292;28;20324;-59
2021/08/29 00:32:34;;;;;;;;;;;;;;;-144.99;100.00;52370.63;5045283;28;20363;-59
2021/08/29 00:35:01;;;;;;;;;;;;;;;-144.99;100.00;52395.09;5045828;28;19980;-60
2021/08/29 00:37:27;;;;;;;;;;;;;;;-144.99;100.00;52407.31;5043444;28;20051;-59
2021/08/29 00:39:53;;;;;;;;;;;;;;;-144.99;100.00;52409.38;5043532;28;19977;-59
2021/08/29 00:42:20;;;;;;;;;;;;;;;-144.99;100.00;52407.31;5047488;28;19995;-60
2021/08/29 00:44:46;;;;;;;;;;;;;;;-144.99;100.00;52407.31;5047960;28;20443;-60
2021/08/29 00:47:14;;;;;;;;;;;;;;;-144.99;100.00;52452.16;5046131;28;20361;-60
2021/08/29 00:49:40;;;;;;;;;;;;;;;-144.99;100.00;52431.78;5044450;28;20002;-59
2021/08/29 00:52:08;;;;;;;;;;;;;;;-144.99;100.00;52415.47;5044554;28;19971;-59
2021/08/29 00:54:34;;;;;;;;;;;;;;;-144.99;100.00;52395.09;5046682;28;19992;-60
2021/08/29 00:57:01;;;;;;;;;;;;;;;-144.99;100.00;52395.09;5048810;28;19991;-60
2021/08/29 00:59:28;;;;;;;;;;;;;;;-144.99;100.00;52425.66;5044910;28;19979;-61
2021/08/29 01:01:56;;;;;;;;;;;;;;;-144.99;100.00;52395.09;5049985;28;21035;-62
2021/08/29 01:04:31;;;;;;;;;;;;;;;-144.99;100.00;52399.19;5044055;28;20018;-61
2021/08/29 01:07:02;;;;;;;;;;;;;;;-144.99;100.00;52403.25;5040241;28;20008;-62
2021/08/29 01:09:29;;;;;;;;;;;;;;;-144.99;100.00;52403.25;5045251;28;19994;-62
2021/08/29 01:11:55;;;;;;;;;;;;;;;-144.99;100.00;52407.31;5046412;28;20347;-61
2021/08/29 01:14:23;;;;;;;;;;;;;;;-144.99;100.00;52407.31;5042750;28;20065;-61
2021/08/29 01:16:52;;;;;;;;;;;;;;;-144.99;100.00;52419.56;5045413;28;20007;-62
2021/08/29 01:19:20;;;;;;;;;;;;;;;-144.99;100.00;52431.78;5043379;28;19989;-61
2021/08/29 01:21:49;;;;;;;;;;;;;;;-144.99;100.00;52409.38;5044032;28;19970;-61
2021/08/29 01:24:16;;;;;;;;;;;;;;;-144.99;100.00;52403.25;5042446;28;19971;-62
2021/08/29 01:26:46;;;;;;;;;;;;;;;-144.99;100.00;52423.63;5046969;28;19978;-61
2021/08/29 01:29:16;;;;;;;;;;;;;;;-144.99;100.00;52431.78;5046360;28;20365;-62
2021/08/29 01:31:43;;;;;;;;;;;;;;;-144.99;100.00;52439.94;5044476;28;19966;-62
2021/08/29 01:34:12;;;;;;;;;;;;;;;-144.99;100.00;52421.59;5042342;28;20380;-62
2021/08/29 01:36:40;;;;;;;;;;;;;;;-144.99;100.00;52444.03;5042291;28;19993;-61
2021/08/29 01:39:07;;;;;;;;;;;;;;;-144.99;100.00;52413.44;5043078;28;19982;-62
2021/08/29 01:41:34;;;;;;;;;;;;;;;-144.99;100.00;52458.28;5043255;28;19979;-62
2021/08/29 01:44:01;;;;;;;;;;;;;;;-144.99;100.00;52419.56;5047596;28;20369;-61
2021/08/29 01:46:29;;;;;;;;;;;;;;;-144.99;100.00;52384.91;5043941;28;20058;-61
2021/08/29 01:48:57;;;;;;;;;;;;;;;-144.99;100.00;52391.03;5046275;28;19953;-60
2021/08/29 01:51:23;;;;;;;;;;;;;;;-144.99;100.00;52480.72;5043644;28;20339;-59
2021/08/29 01:53:49;;;;;;;;;;;;;;;-144.99;100.00;52419.56;5043900;28;19979;-59
2021/08/29 01:56:16;;;;;;;;;;;;;;;-144.99;100.00;52407.31;5044023;28;19998;-59
2021/08/29 01:58:42;;;;;;;;;;;;;;;-144.99;100.00;52374.72;5042612;28;20351;-62
2021/08/29 02:01:10;;;;;;;;;;;;;;;-144.99;100.00;52427.72;5046012;28;19978;-60
2021/08/29 02:03:38;;;;;;;;;;;;;;;-144.99;100.00;52419.56;5042278;28;19995;-60
2021/08/29 02:06:07;;;;;;;;;;;;;;;-144.99;100.00;52415.47;5039906;28;20655;-60
2021/08/29 02:08:36;;;;;;;;;;;;;;;-144.99;100.00;52407.31;5049073;28;19982;-60
2021/08/29 02:11:02;;;;;;;;;;;;;;;-144.99;100.00;52444.03;5044907;28;19982;-60
2021/08/29 02:13:30;;;;;;;;;;;;;;;-144.99;100.00;52419.56;5041204;28;20171;-60
2021/08/29 02:15:59;;;;;;;;;;;;;;;-144.99;100.00;52403.25;5043278;28;19971;-60
2021/08/29 02:18:28;;;;;;;;;;;;;;;-144.99;100.00;52419.56;5046096;28;19991;-60
2021/08/29 02:20:55;;;;;;;;;;;;;;;-144.99;100.00;52439.94;5040855;28;19971;-60
2021/08/29 02:23:23;;;;;;;;;;;;;;;-144.99;100.00;52419.56;5043352;28;20332;-60
2021/08/29 02:25:50;;;;;;;;;;;;;;;-144.99;100.00;52431.78;5045760;28;20056;-60
2021/08/29 02:28:17;;;;;;;;;;;;;;;-144.99;100.00;52423.63;4694444;28;10000336;-60
2021/08/29 02:30:43;;;;;;;;;;;;;;;-144.99;100.00;52415.47;5042875;28;20253;-60
2021/08/29 02:33:10;;;;;;;;;;;;;;;-144.99;100.00;52419.56;5042901;28;19967;-60
2021/08/29 02:35:38;;;;;;;;;;;;;;;-144.99;100.00;52395.09;5046213;28;19966;-58
2021/08/29 02:38:06;;;;;;;;;;;;;;;-144.99;100.00;52423.63;5043853;28;20470;-61
2021/08/29 02:40:35;;;;;;;;;;;;;;;-144.99;100.00;52378.78;5043247;28;19975;-61
2021/08/29 02:43:02;;;;;;;;;;;;;;;-144.99;100.00;52437.91;5058597;22;19981;-60
2021/08/29 02:45:29;;;;;;;;;;;;;;;-144.99;100.00;52427.72;5043509;28;19949;-62
2021/08/29 02:47:55;;;;;;;;;;;;;;;-144.99;100.00;52415.47;5045117;28;19989;-61
2021/08/29 02:50:22;;;;;;;;;;;;;;;-144.99;100.00;52435.88;5044733;28;19967;-60
2021/08/29 02:52:49;;;;;;;;;;;;;;;-144.99;100.00;52386.94;5044953;28;20010;-60
2021/08/29 02:55:19;;;;;;;;;;;;;;;-144.99;100.00;52411.41;5045262;28;19969;-60
2021/08/29 02:57:46;;;;;;;;;;;;;;;-144.99;100.00;52431.78;5046544;28;20419;-60
2021/08/29 03:00:14;;;;;;;;;;;;;;;-144.99;100.00;52427.72;5048094;28;19972;-61
2021/08/29 03:02:42;;;;;;;;;;;;;;;-144.99;100.00;52382.88;5049912;28;19979;-60
2021/08/29 03:05:08;;;;;;;;;;;;;;;-144.99;100.00;52397.13;5042232;28;19987;-60
2021/08/29 03:07:35;;;;;;;;;;;;;;;-144.99;100.00;52415.47;5044770;28;19981;-60
2021/08/29 03:10:02;;;;;;;;;;;;;;;-144.99;100.00;52425.66;5045488;28;19970;-59
2021/08/29 03:12:30;;;;;;;;;;;;;;;-144.99;100.00;52431.78;5044543;28;19968;-58
2021/08/29 03:14:57;;;;;;;;;;;;;;;-144.99;100.00;52395.09;5045445;28;19993;-59
2021/08/29 03:17:24;;;;;;;;;;;;;;;-144.99;100.00;52419.56;5043039;28;20333;-60
2021/08/29 03:19:50;;;;;;;;;;;;;;;-144.99;100.00;52421.59;5045602;28;19971;-61
2021/08/29 03:22:17;;;;;;;;;;;;;;;-144.99;100.00;52382.88;5044624;28;19995;-59
2021/08/29 03:24:43;;;;;;;;;;;;;;;-144.99;100.00;52399.19;5045111;28;19976;-60
2021/08/29 03:27:10;;;;;;;;;;;;;;;-144.99;100.00;52393.06;5044758;28;20496;-60
2021/08/29 03:29:38;;;;;;;;;;;;;;;-144.99;100.00;52401.22;5045288;28;19981;-59
2021/08/29 03:32:05;;;;;;;;;;;;;;;-144.99;100.00;52452.16;5047134;28;19981;-59
2021/08/29 03:34:34;;;;;;;;;;;;;;;-144.99;100.00;52464.41;5044999;28;19965;-59
2021/08/29 03:37:01;;;;;;;;;;;;;;;-144.99;100.00;52446.06;5042950;28;19990;-60
2021/08/29 03:39:27;;;;;;;;;;;;;;;-144.99;100.00;52401.22;5044955;28;19990;-60
2021/08/29 03:41:56;;;;;;;;;;;;;;;-144.99;100.00;52415.47;5044401;28;19965;-59
2021/08/29 03:44:22;;;;;;;;;;;;;;;-144.99;100.00;52413.44;5042246;28;20362;-56
2021/08/29 03:46:50;;;;;;;;;;;;;;;-144.99;100.00;52419.56;5044728;28;20341;-59
2021/08/29 03:49:17;;;;;;;;;;;;;;;-144.99;100.00;52423.63;5043936;28;20328;-60
2021/08/29 03:51:46;;;;;;;;;;;;;;;-144.99;100.00;52435.88;5043002;28;20349;-59
2021/08/29 03:54:12;;;;;;;;;;;;;;;-144.99;100.00;52419.56;5046703;28;19973;-59
2021/08/29 03:56:39;;;;;;;;;;;;;;;-144.99;100.00;52413.44;5049141;28;19985;-58
2021/08/29 03:59:06;;;;;;;;;;;;;;;-144.99;100.00;52450.13;5046269;28;19969;-58
2021/08/29 04:01:32;;;;;;;;;;;;;;;-144.99;100.00;52384.91;5044268;28;19967;-59
2021/08/29 04:04:00;;;;;;;;;;;;;;;-144.99;100.00;52419.56;5044101;28;20074;-58
2021/08/29 04:06:27;;;;;;;;;;;;;;;-144.99;100.00;52439.94;5042848;28;19988;-58
2021/08/29 04:08:54;;;;;;;;;;;;;;;-144.99;100.00;52431.78;5045627;28;19967;-58
2021/08/29 04:11:22;;;;;;;;;;;;;;;-144.99;100.00;52444.03;5042894;28;19970;-58
2021/08/29 04:13:48;;;;;;;;;;;;;;;-144.99;100.00;52444.03;5041847;28;20086;-58
2021/08/29 04:16:15;;;;;;;;;;;;;;;-144.99;100.00;52403.25;5042142;28;19944;-58
2021/08/29 04:18:42;;;;;;;;;;;;;;;-144.99;100.00;52391.03;5045446;28;19963;-60
2021/08/29 04:21:10;;;;;;;;;;;;;;;-144.99;100.00;52393.06;5045407;28;20203;-58
2021/08/29 04:23:37;;;;;;;;;;;;;;;-144.99;100.00;52427.72;5044768;28;20528;-58
2021/08/29 04:26:03;;;;;;;;;;;;;;;-144.99;100.00;52391.03;5045958;28;19960;-58
2021/08/29 04:28:30;;;;;;;;;;;;;;;-144.99;100.00;52427.72;5045545;28;20458;-58
2021/08/29 04:30:58;;;;;;;;;;;;;;;-144.99;100.00;52378.78;5043411;28;19964;-59
2021/08/29 04:33:25;;;;;;;;;;;;;;;-144.99;100.00;52395.09;5043942;28;19970;-59
2021/08/29 04:35:51;;;;;;;;;;;;;;;-144.99;100.00;52419.56;5044286;28;19972;-59
2021/08/29 04:38:19;;;;;;;;;;;;;;;-144.99;100.00;52411.41;5043200;28;20331;-59
2021/08/29 04:40:45;;;;;;;;;;;;;;;-144.99;100.00;52427.72;5044522;28;19941;-58
2021/08/29 04:43:11;;;;;;;;;;;;;;;-144.99;100.00;52452.16;5048544;28;20403;-58
2021/08/29 04:45:38;;;;;;;;;;;;;;;-144.99;100.00;52413.44;5048400;28;19978;-58
2021/08/29 04:48:05;;;;;;;;;;;;;;;-144.99;100.00;52411.41;5047874;28;19977;-57
2021/08/29 04:50:31;;;;;;;;;;;;;;;-144.99;100.00;52419.56;5048035;28;19989;-57
2021/08/29 04:52:57;;;;;;;;;;;;;;;-144.99;100.00;52444.03;5047642;28;19968;-57
2021/08/29 04:55:25;;;;;;;;;;;;;;;-144.99;100.00;52448.09;5049539;28;19956;-57
2021/08/29 04:57:51;;;;;;;;;;;;;;;-144.99;100.00;52366.56;5047912;28;20110;-57
2021/08/29 05:00:18;;;;;;;;;;;;;;;-144.99;100.00;52423.63;5044544;28;19956;-57
2021/08/29 05:02:44;;;;;;;;;;;;;;;-144.99;100.00;52417.53;5047352;28;19952;-57
2021/08/29 05:05:11;;;;;;;;;;;;;;;-144.99;100.00;52407.31;5043906;28;19972;-57
2021/08/29 05:07:37;;;;;;;;;;;;;;;-144.99;100.00;52423.63;5045979;28;19985;-57
2021/08/29 05:10:04;;;;;;;;;;;;;;;-144.99;100.00;52419.56;5046238;28;19962;-59
2021/08/29 05:12:32;;;;;;;;;;;;;;;-144.99;100.00;52391.03;5047508;28;19948;-59
2021/08/29 05:14:58;;;;;;;;;;;;;;;-144.99;100.00;52407.31;5047142;28;19944;-59
2021/08/29 05:17:24;;;;;;;;;;;;;;;-144.99;100.00;52429.75;5048066;28;19976;-56
2021/08/29 05:19:51;;;;;;;;;;;;;;;-144.99;100.00;52448.09;5047072;28;19980;-57
2021/08/29 05:22:17;;;;;;;;;;;;;;;-144.99;100.00;52431.78;5046568;28;19990;-58
2021/08/29 05:24:43;;;;;;;;;;;;;;;-144.99;100.00;52431.78;5047209;28;20444;-60
2021/08/29 05:27:10;;;;;;;;;;;;;;;-144.99;100.00;52419.56;5047196;28;19986;-59
2021/08/29 05:29:37;;;;;;;;;;;;;;;-144.99;100.00;52386.94;5047168;28;20394;-60
2021/08/29 05:32:04;;;;;;;;;;;;;;;-144.99;100.00;52395.09;5047035;28;19977;-57
2021/08/29 05:34:30;;;;;;;;;;;;;;;-144.99;100.00;52403.25;5047896;28;19970;-62
2021/08/29 05:36:57;;;;;;;;;;;;;;;-144.99;100.00;52403.25;5046253;28;19993;-60
2021/08/29 05:39:23;;;;;;;;;;;;;;;-144.99;100.00;52386.94;5046997;28;20135;-63
2021/08/29 05:41:50;;;;;;;;;;;;;;;-144.99;100.00;52403.25;5047255;28;19952;-62
2021/08/29 05:44:16;;;;;;;;;;;;;;;-144.99;100.00;52407.31;5045838;28;19995;-61
2021/08/29 05:46:44;;;;;;;;;;;;;;;-144.99;100.00;52427.72;5046474;28;19987;-59
2021/08/29 05:49:10;;;;;;;;;;;;;;;-144.99;100.00;52407.31;5046240;28;19971;-59
2021/08/29 05:51:36;;;;;;;;;;;;;;;-144.99;100.00;52431.78;5046041;28;20354;-59
2021/08/29 05:54:03;;;;;;;;;;;;;;;-144.99;100.00;52429.75;5046612;28;20024;-58
2021/08/29 05:56:29;;;;;;;;;;;;;;;-144.99;100.00;52413.44;5046570;28;19990;-57
2021/08/29 05:58:56;;;;;;;;;;;;;;;-144.99;100.00;52439.94;5045843;28;20408;-60
2021/08/29 06:01:22;;;;;;;;;;;;;;;-144.99;100.00;52427.72;5047088;28;20352;-59
2021/08/29 06:03:50;;;;;;;;;;;;;;;-144.99;100.00;52399.19;5046907;28;19978;-57
2021/08/29 06:06:16;;;;;;;;;;;;;;;-144.99;100.00;52399.19;5045017;28;19987;-59
2021/08/29 06:08:42;;;;;;;;;;;;;;;-144.99;100.00;52431.78;5044119;28;19970;-60
2021/08/29 06:11:09;;;;;;;;;;;;;;;-144.99;100.00;52415.47;5044491;28;19971;-60
2021/08/29 06:13:35;;;;;;;;;;;;;;;-144.99;100.00;52407.31;5047663;28;19979;-60
2021/08/29 06:16:02;;;;;;;;;;;;;;;-144.99;100.00;52419.56;5046469;28;19983;-61
2021/08/29 06:18:28;;;;;;;;;;;;;;;-144.99;100.00;52403.25;5046689;28;19988;-60
2021/08/29 06:20:56;;;;;;;;;;;;;;;-144.99;100.00;52419.56;5044422;28;19970;-61
2021/08/29 06:23:22;;;;;;;;;;;;;;;-144.99;100.00;52399.19;5046013;28;19975;-59
2021/08/29 06:25:49;;;;;;;;;;;;;;;-144.99;100.00;52427.72;5045725;28;20792;-59
2021/08/29 06:28:15;;;;;;;;;;;;;;;-144.99;100.00;52391.03;5046352;28;20001;-59
2021/08/29 06:30:41;;;;;;;;;;;;;;;-144.99;100.00;52448.09;5045228;28;19977;-59
2021/08/29 06:33:08;;;;;;;;;;;;;;;-144.99;100.00;52399.19;5045600;28;20002;-60
2021/08/29 06:35:34;;;;;;;;;;;;;;;-144.99;100.00;52376.75;5045313;28;19985;-59
2021/08/29 06:38:02;;;;;;;;;;;;;;;-144.99;100.00;52423.63;5045157;28;20485;-58
2021/08/29 06:40:28;;;;;;;;;;;;;;;-144.99;100.00;52395.09;5044740;28;20002;-59
2021/08/29 06:42:55;;;;;;;;;;;;;;;-144.99;100.00;52386.94;5043492;28;19998;-59
2021/08/29 06:45:22;;;;;;;;;;;;;;;-144.99;100.00;52407.31;5044702;28;19991;-60
2021/08/29 06:47:48;;;;;;;;;;;;;;;-144.99;100.00;52407.31;5045634;28;19980;-59
2021/08/29 06:50:14;;;;;;;;;;;;;;;-144.99;100.00;52391.03;5044707;28;19979;-58
2021/08/29 06:52:41;;;;;;;;;;;;;;;-144.99;100.00;52419.56;5045994;28;19976;-58
2021/08/29 06:55:09;;;;;;;;;;;;;;;-144.99;100.00;52395.09;5047039;28;19992;-59
2021/08/29 06:57:35;;;;;;;;;;;;;;;-144.99;100.00;52388.97;5045877;28;19968;-60
2021/08/29 07:00:01;;;;;;;;;;;;;;;-144.99;100.00;52378.78;5047404;28;19974;-60
2021/08/29 07:02:29;;;;;;;;;;;;;;;-144.99;100.00;52407.31;5048033;28;19970;-61
2021/08/29 07:04:55;;;;;;;;;;;;;;;-144.99;100.00;52395.09;5042847;28;19987;-61
2021/08/29 07:07:21;;;;;;;;;;;;;;;-144.99;100.00;52374.72;5045813;28;20002;-62
2021/08/29 07:09:48;;;;;;;;;;;;;;;-144.99;100.00;52386.94;5042927;28;19990;-61
2021/08/29 07:12:15;;;;;;;;;;;;;;;-144.99;100.00;52366.56;5045281;28;19976;-62
2021/08/29 07:14:42;;;;;;;;;;;;;;;-144.99;100.00;52366.56;5045270;28;20010;-61
2021/08/29 07:17:08;;;;;;;;;;;;;;;-144.99;100.00;52382.88;5044368;28;19968;-61
2021/08/29 07:19:34;;;;;;;;;;;;;;;-144.99;100.00;52366.56;5044186;28;19929;-62
2021/08/29 07:22:01;;;;;;;;;;;;;;;-144.99;100.00;52378.78;5042718;28;20563;-61
2021/08/29 07:24:27;;;;;;;;;;;;;;;-144.99;100.00;52391.03;5043427;28;20447;-62
2021/08/29 07:26:53;;;;;;;;;;;;;;;-144.99;100.00;52374.72;5044057;28;20467;-62
2021/08/29 07:29:21;;;;;;;;;;;;;;;-144.99;100.00;52338.03;5043596;28;19971;-62
2021/08/29 07:31:47;;;;;;;;;;;;;;;-144.99;100.00;52366.56;5044483;28;19972;-63
2021/08/29 07:34:14;;;;;;;;;;;;;;;-144.99;100.00;52391.03;5045325;28;19961;-62
2021/08/29 07:36:40;;;;;;;;;;;;;;;-144.99;100.00;52386.94;5043728;28;20093;-63
2021/08/29 07:39:07;;;;;;;;;;;;;;;-144.99;100.00;52370.63;5045118;28;19975;-63
2021/08/29 07:41:33;;;;;;;;;;;;;;;-144.99;100.00;52380.84;5045402;28;20095;-60
2021/08/29 07:43:59;;;;;;;;;;;;;;;-144.99;100.00;52378.78;5044234;28;20019;-62
2021/08/29 07:46:29;;;;;;;;;;;;;;;-144.99;100.00;52374.72;5043285;28;20007;-62
2021/08/29 07:48:55;;;;;;;;;;;;;;;-144.99;100.00;52297.25;5040161;28;19968;-61
2021/08/29 07:51:22;;;;;;;;;;;;;;;-144.99;100.00;52374.72;5039218;28;19975;-63
2021/08/29 07:53:48;;;;;;;;;;;;;;;-144.99;100.00;52346.19;5043604;28;20329;-62
2021/08/29 07:56:14;;;;;;;;;;;;;;;-144.99;100.00;52366.56;5041940;28;19971;-62
2021/08/29 07:58:41;;;;;;;;;;;;;;;-144.99;100.00;52378.78;5044108;28;19973;-62
2021/08/29 08:01:07;;;;;;;;;;;;;;;-144.99;100.00;52342.09;5044040;28;19975;-61
2021/08/29 08:03:35;;;;;;;;;;;;;;;-144.99;100.00;52346.19;5044205;28;19975;-61
2021/08/29 08:06:03;;;;;;;;;;;;;;;-144.99;100.00;52391.03;5040586;28;20008;-61
2021/08/29 08:08:29;;;;;;;;;;;;;;;-144.99;100.00;52358.41;5044404;28;19996;-61
2021/08/29 08:10:56;;;;;;;;;;;;;;;-144.99;100.00;52378.78;5043865;28;19972;-60
2021/08/29 08:13:22;;;;;;;;;;;;;;;-144.99;100.00;52346.19;5046787;28;19979;-61
2021/08/29 08:15:48;;;;;;;;;;;;;;;-144.99;100.00;52352.28;5043360;28;19971;-63
2021/08/29 08:18:15;;;;;;;;;;;;;;;-144.99;100.00;52364.53;5050268;28;19991;-62
2021/08/29 08:20:43;;;;;;;;;;;;;;;-144.99;100.00;52358.41;5047789;28;19979;-62
2021/08/29 08:23:09;;;;;;;;;;;;;;;-144.99;100.00;52309.50;5048383;28;19943;-62
2021/08/29 08:25:35;;;;;;;;;;;;;;;-144.99;100.00;52342.09;5048860;28;20018;-62
2021/08/29 08:28:02;;;;;;;;;;;;;;;-144.99;100.00;52338.03;5048311;28;20001;-62
2021/08/29 08:30:28;;;;;;;;;;;;;;;-144.99;100.00;52329.88;5049154;28;19976;-61
2021/08/29 08:32:55;;;;;;;;;;;;;;;-144.99;100.00;52350.25;5046534;28;19986;-62
2021/08/29 08:35:21;;;;;;;;;;;;;;;-144.99;100.00;52378.78;4344626;28;10000850;-61
2021/08/29 08:37:49;;;;;;;;;;;;;;;-144.99;100.00;52354.34;5043978;28;19986;-61
2021/08/29 08:40:15;;;;;;;;;;;;;;;-144.99;100.00;52336.00;5049394;28;19962;-62
2021/08/29 08:42:42;;;;;;;;;;;;;;;-144.99;100.00;52348.22;5049502;28;19984;-62
2021/08/29 08:45:09;;;;;;;;;;;;;;;-144.99;100.00;52376.75;5049586;28;20033;-62
2021/08/29 08:47:37;;;;;;;;;;;;;;;-144.99;100.00;52395.09;5049548;28;19999;-63
2021/08/29 08:50:04;;;;;;;;;;;;;;;-144.99;100.00;52338.03;5048729;28;20539;-61
2021/08/29 08:52:30;;;;;;;;;;;;;;;-144.99;100.00;52370.63;5049198;28;20465;-60
2021/08/29 08:54:59;;;;;;;;;;;;;;;-144.99;100.00;52350.25;5051409;28;19956;-62
2021/08/29 08:57:26;;;;;;;;;;;;;;;-144.99;100.00;52350.25;5049496;28;20459;-60
2021/08/29 08:59:53;;;;;;;;;;;;;;;-144.99;100.00;52374.72;5048979;28;19982;-61
2021/08/29 09:02:21;;;;;;;;;;;;;;;-144.99;100.00;52358.41;5049736;28;20010;-61
2021/08/29 09:04:47;;;;;;;;;;;;;;;-144.99;100.00;52374.72;5045025;28;20436;-61
2021/08/29 09:07:14;;;;;;;;;;;;;;;-144.99;100.00;52358.41;5049204;28;19993;-62
2021/08/29 09:09:41;;;;;;;;;;;;;;;-144.99;100.00;52380.84;5049678;28;19980;-61
2021/08/29 09:12:09;;;;;;;;;;;;;;;-144.99;100.00;52354.34;5048766;28;20484;-59
2021/08/29 09:14:38;;;;;;;;;;;;;;;-144.99;100.00;52305.41;5049040;28;19983;-61
2021/08/29 09:17:20;;;;;;;;;;;;;;;-144.99;100.00;52333.94;5051804;28;20002;-61
2021/08/29 09:19:47;;;;;;;;;;;;;;;-144.99;100.00;52364.53;5049570;28;20355;-61
2021/08/29 09:22:14;;;;;;;;;;;;;;;-144.99;100.00;52374.72;5063213;28;20022;-61
2021/08/29 09:24:49;;;;;;;;;;;;;;;-144.99;100.00;52342.09;5048763;28;19990;-61
2021/08/29 09:27:16;;;;;;;;;;;;;;;-144.99;100.00;52340.06;5048544;28;20002;-63
2021/08/29 09:29:43;;;;;;;;;;;;;;;-144.99;100.00;52374.72;5049497;28;19975;-62
2021/08/29 09:32:10;;;;;;;;;;;;;;;-144.99;100.00;52338.03;5060569;28;20002;-63
2021/08/29 09:34:36;;;;;;;;;;;;;;;-144.99;100.00;52362.50;5044111;28;19982;-65
2021/08/29 09:37:03;;;;;;;;;;;;;;;-144.99;100.00;52360.44;5048502;28;20045;-66
2021/08/29 09:39:29;;;;;;;;;;;;;;;-144.99;100.00;52395.09;5046495;28;19978;-64
2021/08/29 09:42:01;;;;;;;;;;;;;;;-144.99;100.00;52325.81;5043561;28;19977;-61
2021/08/29 09:44:32;;;;;;;;;;;;;;;-144.99;100.00;52301.34;5034267;28;19994;-61
2021/08/29 09:47:00;;;;;;;;;;;;;;;-144.99;100.00;52315.59;5045995;28;20364;-60
2021/08/29 09:49:26;;;;;;;;;;;;;;;-144.99;100.00;52356.38;5046165;28;20021;-61
2021/08/29 09:51:53;;;;;;;;;;;;;;;-144.99;100.00;52325.81;5046085;28;20387;-61
2021/08/29 09:54:32;;;;;;;;;;;;;;;-144.99;100.00;52384.91;5046230;28;20278;-61
2021/08/29 09:56:59;;;;;;;;;;;;;;;-144.99;100.00;52354.34;5049033;28;20708;-61
2021/08/29 09:59:43;;;;;;;;;;;;;;;-144.99;100.00;52352.28;5048552;28;19969;-61
2021/08/29 10:02:10;;;;;;;;;;;;;;;-144.99;100.00;52350.25;5035225;28;20287;-67
2021/08/29 10:04:37;;;;;;;;;;;;;;;-144.99;100.00;52350.25;5048385;28;20259;-67
2021/08/29 10:07:10;;;;;;;;;;;;;;;-144.99;100.00;52342.09;5062146;28;20444;-67
2021/08/29 10:09:36;;;;;;;;;;;;;;;-144.99;100.00;52342.09;5051582;28;19983;-67
2021/08/29 10:12:03;;;;;;;;;;;;;;;-144.99;100.00;52366.56;5059481;28;19973;-68
2021/08/29 10:14:29;;;;;;;;;;;;;;;-144.99;100.00;52350.25;5048788;28;19973;-66
2021/08/29 10:16:58;;;;;;;;;;;;;;;-144.99;100.00;52393.06;5049286;28;19990;-67
2021/08/29 10:19:25;;;;;;;;;;;;;;;-144.99;100.00;52338.03;5048338;28;19951;-67
2021/08/29 10:21:52;;;;;;;;;;;;;;;-144.99;100.00;52333.94;5040387;28;19964;-67
2021/08/29 10:24:20;;;;;;;;;;;;;;;-144.99;100.00;52333.94;5047877;28;19974;-67
2021/08/29 10:26:47;;;;;;;;;;;;;;;-144.99;100.00;52362.50;5047843;28;20473;-67
2021/08/29 10:29:15;;;;;;;;;;;;;;;-144.99;100.00;52350.25;5048556;28;20027;-68
2021/08/29 10:31:42;;;;;;;;;;;;;;;-144.99;100.00;52358.41;5062392;28;19974;-68
2021/08/29 10:34:11;;;;;;;;;;;;;;;-144.99;100.00;52364.53;5056641;28;19962;-68
2021/08/29 10:36:37;;;;;;;;;;;;;;;-144.99;100.00;52362.50;5042136;28;19992;-68
2021/08/29 10:39:04;;;;;;;;;;;;;;;-144.99;100.00;52372.69;5045901;28;20341;-70
2021/08/29 10:41:31;;;;;;;;;;;;;;;-144.99;100.00;52380.84;5043996;28;19972;-67
2021/08/29 10:43:57;;;;;;;;;;;;;;;-144.99;100.00;52386.94;5046284;28;20058;-69
2021/08/29 10:46:24;;;;;;;;;;;;;;;-144.99;100.00;52382.88;5045453;28;19984;-69
2021/08/29 10:48:52;;;;;;;;;;;;;;;-144.99;100.00;52378.78;5045683;28;20064;-68
2021/08/29 10:51:26;;;;;;;;;;;;;;;-144.99;100.00;52374.72;5045493;28;19986;-68
2021/08/29 10:53:54;;;;;;;;;;;;;;;-144.99;100.00;52368.59;5046015;28;20026;-68
2021/08/29 10:56:32;;;;;;;;;;;;;;;-144.99;100.00;52358.41;5048899;28;19975;-69
2021/08/29 10:59:28;;;;;;;;;;;;;;;-144.99;100.00;52366.56;5045536;28;20066;-68
2021/08/29 11:02:10;;;;;;;;;;;;;;;-144.99;100.00;52382.88;4980197;28;20073;-67
2021/08/29 11:04:43;;;;;;;;;;;;;;;-144.99;100.00;52415.47;5035534;28;20047;-68
2021/08/29 11:07:10;;;;;;;;;;;;;;;-144.99;100.00;52409.38;5046084;28;20006;-68
2021/08/29 11:09:46;;;;;;;;;;;;;;;-144.99;100.00;52350.25;5056292;28;19970;-70
2021/08/29 11:12:32;;;;;;;;;;;;;;;-144.99;100.00;52350.25;5056313;28;20004;-71
2021/08/29 11:15:00;;;;;;;;;;;;;;;-144.99;100.00;52342.09;5050157;28;19983;-69
2021/08/29 11:17:27;;;;;;;;;;;;;;;-144.99;100.00;52340.06;5051667;28;20113;-68
2021/08/29 11:19:54;;;;;;;;;;;;;;;-144.99;100.00;52399.19;5040336;28;19977;-68
2021/08/29 11:22:23;;;;;;;;;;;;;;;-144.99;100.00;52333.94;5046909;28;19973;-69
2021/08/29 11:24:53;;;;;;;;;;;;;;;-144.99;100.00;52354.34;5049502;28;19990;-69
2021/08/29 11:27:39;;;;;;;;;;;;;;;-144.99;100.00;52370.63;5045139;28;20059;-69
2021/08/29 11:30:09;;;;;;;;;;;;;;;-144.99;100.00;52382.88;5048968;28;19979;-70
2021/08/29 11:32:37;;;;;;;;;;;;;;;-144.99;100.00;52360.44;5044962;28;19982;-71
2021/08/29 11:35:04;;;;;;;;;;;;;;;-144.99;100.00;52362.50;5042974;28;20428;-69
2021/08/29 11:37:31;;;;;;;;;;;;;;;-144.99;100.00;52325.81;5051344;28;20416;-69
2021/08/29 11:40:00;;;;;;;;;;;;;;;-144.99;100.00;52342.09;5045015;28;19970;-70
2021/08/29 11:42:27;;;;;;;;;;;;;;;-144.99;100.00;52384.91;5044990;28;19991;-69
2021/08/29 11:44:54;;;;;;;;;;;;;;;-144.99;100.00;52362.50;5042435;28;20009;-70
2021/08/29 11:47:21;;;;;;;;;;;;;;;-144.99;100.00;52354.34;5045706;28;20012;-69
2021/08/29 11:49:52;;;;;;;;;;;;;;;-144.99;100.00;52338.03;5046121;28;19973;-69
2021/08/29 11:52:26;;;;;;;;;;;;;;;-144.99;100.00;52354.34;5045679;28;19983;-70
2021/08/29 11:55:04;;;;;;;;;;;;;;;-144.99;100.00;52350.25;5047801;28;20425;-69
2021/08/29 11:57:30;;;;;;;;;;;;;;;-144.99;100.00;52358.41;5034559;28;19988;-70
2021/08/29 12:00:06;;;;;;;;;;;;;;;-144.99;100.00;52297.25;5045161;28;20302;-69
2021/08/29 12:02:41;;;;;;;;;;;;;;;-144.99;100.00;52329.88;5046275;28;20443;-69
2021/08/29 12:05:08;;;;;;;;;;;;;;;-144.99;100.00;52346.19;5043065;28;20000;-70
2021/08/29 12:07:37;;;;;;;;;;;;;;;-144.99;100.00;52342.09;5046033;28;20042;-68
2021/08/29 12:10:05;;;;;;;;;;;;;;;-144.99;100.00;52331.91;5046743;28;20053;-68
2021/08/29 12:12:32;;;;;;;;;;;;;;;-144.99;100.00;52336.00;5040637;28;20023;-68
2021/08/29 12:14:59;;;;;;;;;;;;;;;-144.99;100.00;52354.34;5043944;28;19997;-71
2021/08/29 12:17:28;;;;;;;;;;;;;;;-144.99;100.00;52319.69;5042584;28;20085;-67
2021/08/29 12:19:55;;;;;;;;;;;;;;;-144.99;100.00;52313.56;5040606;28;19975;-69